Terminal Aerodrome Forecast
Issued by NWS

Home | Current Version | Previous Version | Text Only | Print | Product List | Glossary On
Versions: 1 2 3 4 5 6 7 8 9 10 11 12 13 14 15 16
000
FTUS45 KREV 201740
TAFMMH
TAF
KMMH 201740Z 2018/2118 10008KT 2SM -SNRA SCT008 OVC014
     FM202100 21016G27KT 4SM RA BR SCT012 OVC025
     FM210000 22025G48KT 6SM -SHRASN FEW010 BKN025 WS015/25070KT
     FM210400 23018G32KT 1SM -SN BKN007 OVC010=

USA.gov is the U.S. government's official web portal to all federal, state and local government web resources and services.